Time,TemperatureF,DewpointF,PressureIn,WindDirection,WindDirectionDegrees,WindSpeedMPH,WindSpeedGustMPH,Humidity,HourlyPrecipIn,Conditions,Clouds,dailyrainin,SolarRadiationWatts/m^2,SoftwareType,DateUTC
2013-03-16 00:22:00,43.0,24.0,-100.00,ENE,71,12.0,20.0,47,0.00,,,0.00,0.000000,,2013-03-16 07:22:00,
2013-03-16 00:32:00,43.0,24.0,-100.00,ENE,71,12.0,20.0,47,0.00,,,0.00,0.000000,,2013-03-16 07:32:00,
2013-03-16 00:42:00,43.0,24.0,-100.00,ENE,71,12.0,20.0,47,0.00,,,0.00,0.000000,,2013-03-16 07:42:00,
2013-03-16 00:51:00,44.0,22.0,-100.00,NNW,338,11.0,21.0,41,0.00,,,0.00,0.000000,,2013-03-16 07:51:00,
2013-03-16 01:23:00,44.0,22.0,-100.00,NNW,338,11.0,21.0,41,0.00,,,0.00,0.000000,,2013-03-16 08:23:00,
2013-03-16 01:32:00,44.0,22.0,-100.00,NNW,338,11.0,21.0,41,0.00,,,0.00,0.000000,,2013-03-16 08:32:00,
2013-03-16 01:42:00,44.0,22.0,-100.00,NNW,338,11.0,21.0,41,0.00,,,0.00,0.000000,,2013-03-16 08:42:00,
2013-03-16 01:51:00,42.0,22.0,-100.00,North,359,11.0,18.0,45,0.00,,,0.00,0.000000,,2013-03-16 08:51:00,
2013-03-16 02:12:00,42.0,22.0,-100.00,North,359,11.0,18.0,45,0.00,,,0.00,0.000000,,2013-03-16 09:12:00,
2013-03-16 02:22:00,42.0,22.0,-100.00,North,359,11.0,18.0,45,0.00,,,0.00,0.000000,,2013-03-16 09:22:00,
2013-03-16 02:32:00,42.0,22.0,-100.00,North,359,11.0,18.0,45,0.00,,,0.00,0.000000,,2013-03-16 09:32:00,
2013-03-16 02:42:00,42.0,22.0,-100.00,North,359,11.0,18.0,45,0.00,,,0.00,0.000000,,2013-03-16 09:42:00,
2013-03-16 03:12:00,42.0,14.0,-100.00,North,8,13.0,22.0,32,0.00,,,0.00,0.000000,,2013-03-16 10:12:00,
2013-03-16 03:22:00,42.0,14.0,-100.00,North,8,13.0,22.0,32,0.00,,,0.00,0.000000,,2013-03-16 10:22:00,
2013-03-16 04:22:00,43.0,19.0,-100.00,East,81,13.0,27.0,38,0.00,,,0.00,0.000000,,2013-03-16 11:22:00,
2013-03-16 05:12:00,41.0,5.0,-100.00,WNW,296,13.0,21.0,22,0.00,,,0.00,0.000000,,2013-03-16 12:12:00,
2013-03-16 05:22:00,41.0,5.0,-100.00,WNW,296,13.0,21.0,22,0.00,,,0.00,0.000000,,2013-03-16 12:22:00,
2013-03-16 06:12:00,41.0,5.0,-100.00,WNW,292,12.0,22.0,22,0.00,,,0.00,0.000000,,2013-03-16 13:12:00,
2013-03-16 06:22:00,41.0,5.0,-100.00,WNW,292,12.0,22.0,22,0.00,,,0.00,0.000000,,2013-03-16 13:22:00,
2013-03-16 07:22:00,41.0,-13.0,-100.00,NE,53,12.0,19.0,9,0.00,,,0.00,0.000000,,2013-03-16 14:22:00,
2013-03-16 08:12:00,42.0,-15.0,-100.00,SSE,154,11.0,20.0,8,0.00,,,0.00,20.000000,,2013-03-16 15:12:00,
2013-03-16 08:22:00,42.0,-15.0,-100.00,SSE,154,11.0,20.0,8,0.00,,,0.00,20.000000,,2013-03-16 15:22:00,
2013-03-16 09:22:00,43.0,2.0,-100.00,NE,50,9.0,19.0,18,0.00,,,-99.99,75.000000,,2013-03-16 16:22:00,
2013-03-16 10:12:00,45.0,15.0,-100.00,North,353,9.0,17.0,30,0.00,,,0.00,471.000000,,2013-03-16 17:12:00,
2013-03-16 10:22:00,45.0,15.0,-100.00,North,353,9.0,17.0,30,0.00,,,0.00,471.000000,,2013-03-16 17:22:00,
2013-03-16 11:22:00,47.0,21.0,-100.00,ENE,58,8.0,19.0,36,0.00,,,0.00,920.000000,,2013-03-16 18:22:00,
2013-03-16 12:12:00,47.0,25.0,-100.00,SW,224,10.0,17.0,41,0.00,,,0.00,1133.000000,,2013-03-16 19:12:00,
2013-03-16 12:22:00,47.0,25.0,-100.00,SW,224,10.0,17.0,41,0.00,,,0.00,1133.000000,,2013-03-16 19:22:00,
2013-03-16 12:51:00,50.0,31.0,-100.00,SSW,204,5.0,17.0,47,0.00,,,0.00,1259.000000,,2013-03-16 19:51:00,
2013-03-16 13:21:00,50.0,31.0,-100.00,SSW,204,5.0,17.0,47,0.00,,,0.00,1259.000000,,2013-03-16 20:21:00,
2013-03-16 13:32:00,50.0,31.0,-100.00,SSW,204,5.0,17.0,47,0.00,,,0.00,1259.000000,,2013-03-16 20:32:00,
2013-03-16 13:42:00,50.0,31.0,-100.00,SSW,204,5.0,17.0,47,0.00,,,0.00,1259.000000,,2013-03-16 20:42:00,
2013-03-16 14:12:00,50.0,21.0,-100.00,ENE,70,8.0,15.0,31,0.00,,,0.00,1292.000000,,2013-03-16 21:12:00,
2013-03-16 14:22:00,50.0,21.0,-100.00,ENE,70,8.0,15.0,31,0.00,,,0.00,1292.000000,,2013-03-16 21:22:00,
2013-03-16 14:51:00,52.0,32.0,-100.00,WNW,301,5.0,16.0,47,0.00,,,0.00,1221.000000,,2013-03-16 21:51:00,
2013-03-16 15:22:00,52.0,32.0,-100.00,WNW,301,5.0,16.0,47,0.00,,,0.00,1221.000000,,2013-03-16 22:22:00,
2013-03-16 15:32:00,52.0,32.0,-100.00,WNW,301,5.0,16.0,47,0.00,,,0.00,1221.000000,,2013-03-16 22:32:00,
2013-03-16 15:42:00,52.0,32.0,-100.00,WNW,301,5.0,16.0,47,0.00,,,0.00,1221.000000,,2013-03-16 22:42:00,
2013-03-16 15:51:00,47.0,24.0,-100.00,WNW,294,9.0,19.0,40,0.00,,,0.00,1063.000000,,2013-03-16 22:51:00,
2013-03-16 16:12:00,47.0,24.0,-100.00,WNW,294,9.0,19.0,40,0.00,,,0.00,1063.000000,,2013-03-16 23:12:00,
2013-03-16 16:22:00,47.0,24.0,-100.00,WNW,294,9.0,19.0,40,0.00,,,0.00,1063.000000,,2013-03-16 23:22:00,
2013-03-16 16:32:00,47.0,24.0,-100.00,WNW,294,9.0,19.0,40,0.00,,,0.00,1063.000000,,2013-03-16 23:32:00,
2013-03-16 16:42:00,47.0,24.0,-100.00,WNW,294,9.0,19.0,40,0.00,,,0.00,1063.000000,,2013-03-16 23:42:00,
2013-03-16 16:51:00,45.0,25.0,-100.00,SSE,148,7.0,17.0,45,0.00,,,0.00,177.000000,,2013-03-16 23:51:00,
2013-03-16 17:12:00,45.0,25.0,-100.00,SSE,148,7.0,17.0,45,0.00,,,0.00,177.000000,,2013-03-17 00:12:00,
2013-03-16 17:22:00,45.0,25.0,-100.00,SSE,148,7.0,17.0,45,0.00,,,0.00,177.000000,,2013-03-17 00:22:00,
2013-03-16 17:32:00,45.0,25.0,-100.00,SSE,148,7.0,17.0,45,0.00,,,0.00,177.000000,,2013-03-17 00:32:00,
2013-03-16 17:42:00,45.0,25.0,-100.00,SSE,148,7.0,17.0,45,0.00,,,0.00,177.000000,,2013-03-17 00:42:00,
2013-03-16 18:12:00,42.0,20.0,-100.00,North,357,10.0,17.0,41,0.00,,,0.00,191.000000,,2013-03-17 01:12:00,
2013-03-16 18:22:00,42.0,20.0,-100.00,North,357,10.0,17.0,41,0.00,,,0.00,191.000000,,2013-03-17 01:22:00,
2013-03-16 18:32:00,42.0,20.0,-100.00,North,357,10.0,17.0,41,0.00,,,0.00,191.000000,,2013-03-17 01:32:00,
2013-03-16 18:51:00,38.0,34.0,-100.00,NW,308,7.0,20.0,84,0.00,,,-99.99,82.000000,,2013-03-17 01:51:00,
2013-03-16 19:22:00,38.0,34.0,-100.00,NW,308,7.0,20.0,84,0.00,,,-99.99,82.000000,,2013-03-17 02:22:00,
2013-03-16 19:33:00,38.0,34.0,-100.00,NW,308,7.0,20.0,84,0.00,,,-99.99,82.000000,,2013-03-17 02:33:00,
2013-03-16 19:42:00,38.0,34.0,-100.00,NW,308,7.0,20.0,84,0.00,,,-99.99,82.000000,,2013-03-17 02:42:00,
2013-03-16 19:51:00,37.0,37.0,-100.00,NNW,346,14.0,24.0,100,0.00,,,0.00,2.000000,,2013-03-17 02:51:00,
2013-03-16 20:12:00,37.0,37.0,-100.00,NNW,346,14.0,24.0,100,0.00,,,0.00,2.000000,,2013-03-17 03:12:00,
2013-03-16 20:22:00,37.0,37.0,-100.00,NNW,346,14.0,24.0,100,0.00,,,0.00,2.000000,,2013-03-17 03:22:00,
2013-03-16 20:33:00,37.0,37.0,-100.00,NNW,346,14.0,24.0,100,0.00,,,0.00,2.000000,,2013-03-17 03:33:00,
2013-03-16 20:42:00,37.0,37.0,-100.00,NNW,346,14.0,24.0,100,0.00,,,0.00,2.000000,,2013-03-17 03:42:00,
2013-03-16 20:51:00,39.0,37.0,-100.00,SE,139,16.0,30.0,92,0.00,,,0.00,0.000000,,2013-03-17 03:51:00,
2013-03-16 21:12:00,39.0,37.0,-100.00,SE,139,16.0,30.0,92,0.00,,,0.00,0.000000,,2013-03-17 04:12:00,
2013-03-16 21:23:00,39.0,37.0,-100.00,SE,139,16.0,30.0,92,0.00,,,0.00,0.000000,,2013-03-17 04:23:00,
2013-03-16 21:32:00,39.0,37.0,-100.00,SE,139,16.0,30.0,92,0.00,,,0.00,0.000000,,2013-03-17 04:32:00,
2013-03-16 21:42:00,39.0,37.0,-100.00,SE,139,16.0,30.0,92,0.00,,,0.00,0.000000,,2013-03-17 04:42:00,
2013-03-16 21:51:00,37.0,37.0,-100.00,NNW,342,16.0,33.0,100,0.00,,,0.00,0.000000,,2013-03-17 04:51:00,
2013-03-16 22:22:00,37.0,37.0,-100.00,NNW,342,16.0,33.0,100,0.00,,,0.00,0.000000,,2013-03-17 05:22:00,
2013-03-16 22:32:00,37.0,37.0,-100.00,NNW,342,16.0,33.0,100,0.00,,,0.00,0.000000,,2013-03-17 05:32:00,
2013-03-16 22:42:00,37.0,37.0,-100.00,NNW,342,16.0,33.0,100,0.00,,,0.00,0.000000,,2013-03-17 05:42:00,
2013-03-16 22:51:00,37.0,27.0,-100.00,South,186,16.0,30.0,67,0.00,,,0.00,0.000000,,2013-03-17 05:51:00,
2013-03-16 23:12:00,37.0,27.0,-100.00,South,186,16.0,30.0,67,0.00,,,0.00,0.000000,,2013-03-17 06:12:00,
2013-03-16 23:22:00,37.0,27.0,-100.00,South,186,16.0,30.0,67,0.00,,,0.00,0.000000,,2013-03-17 06:22:00,
2013-03-16 23:32:00,37.0,27.0,-100.00,South,186,16.0,30.0,67,0.00,,,0.00,0.000000,,2013-03-17 06:32:00,
2013-03-16 23:42:00,37.0,27.0,-100.00,South,186,16.0,30.0,67,0.00,,,0.00,0.000000,,2013-03-17 06:42:00,
2013-03-16 23:51:00,38.0,25.0,-100.00,ESE,107,16.0,29.0,60,0.00,,,0.00,0.000000,,2013-03-17 06:51:00,